2R3 weather

Island Lake Seaplane Base
Kenai, Alaska, United States

Public forecast

Using degrees Fahrenheit for public forecast. Weather courtesy of forecast.io.

Closest aviation weather report (METAR) to Island Lake Seaplane Base

Closest report is Kenai Municipal Airport, 8.1 nm (15.0 km) SSE. Retrieved 2020/06/02 00:53 UTC (55 minutes ago):

PAEN 020053Z 02008KT 10SM BKN055 OVC090 16/05 A2955

Closest aviation forecast (TAF) to Island Lake Seaplane Base

Closest forecast is Kenai Municipal Airport, 8.1 nm (15.0 km) SSE. Retrieved 2020-06-02 00:24 UTC (1 hour ago):

TAF PAEN 012321Z 0200/0224 06011KT P6SM SCT050 BKN080